sensor_id;sensor_type;location;lat;lon;timestamp;temperature;humidity
354;DHT22;165;53.592;10.044;2023-02-21T06:05:39;7.60;99.90
354;DHT22;165;53.592;10.044;2023-02-21T06:08:04;7.60;99.90
354;DHT22;165;53.592;10.044;2023-02-21T06:10:29;7.60;99.90
354;DHT22;165;53.592;10.044;2023-02-21T06:12:55;7.70;99.90
354;DHT22;165;53.592;10.044;2023-02-21T06:15:20;7.70;99.90
354;DHT22;165;53.592;10.044;2023-02-21T06:17:48;7.70;99.90
354;DHT22;165;53.592;10.044;2023-02-21T06:20:14;7.70;99.90
354;DHT22;165;53.592;10.044;2023-02-21T06:22:39;7.70;99.90
354;DHT22;165;53.592;10.044;2023-02-21T06:25:05;7.70;99.90
354;DHT22;165;53.592;10.044;2023-02-21T06:27:31;7.70;99.90
354;DHT22;165;53.592;10.044;2023-02-21T06:29:59;7.70;99.90
354;DHT22;165;53.592;10.044;2023-02-21T06:32:25;7.70;99.90
354;DHT22;165;53.592;10.044;2023-02-21T06:34:50;7.70;99.90
354;DHT22;165;53.592;10.044;2023-02-21T06:37:17;7.70;99.90
354;DHT22;165;53.592;10.044;2023-02-21T06:39:43;7.70;99.90
354;DHT22;165;53.592;10.044;2023-02-21T06:42:12;7.70;99.90
354;DHT22;165;53.592;10.044;2023-02-21T06:44:38;7.70;99.90
354;DHT22;165;53.592;10.044;2023-02-21T06:47:03;7.70;99.90
354;DHT22;165;53.592;10.044;2023-02-21T06:49:29;7.70;99.90
354;DHT22;165;53.592;10.044;2023-02-21T06:51:54;7.70;99.90
354;DHT22;165;53.592;10.044;2023-02-21T06:54:20;7.70;99.90
354;DHT22;165;53.592;10.044;2023-02-21T06:56:45;7.70;99.90
354;DHT22;165;53.592;10.044;2023-02-21T06:59:11;7.80;99.90
354;DHT22;165;53.592;10.044;2023-02-21T07:01:37;7.80;99.90
354;DHT22;165;53.592;10.044;2023-02-21T07:04:03;7.80;99.90
354;DHT22;165;53.592;10.044;2023-02-21T07:06:28;7.90;99.90
354;DHT22;165;53.592;10.044;2023-02-21T07:08:53;7.90;99.90
354;DHT22;165;53.592;10.044;2023-02-21T07:11:20;7.90;99.90
354;DHT22;165;53.592;10.044;2023-02-21T07:13:52;8.00;99.90
354;DHT22;165;53.592;10.044;2023-02-21T07:16:19;8.00;99.90
354;DHT22;165;53.592;10.044;2023-02-21T07:18:45;8.00;99.90
354;DHT22;165;53.592;10.044;2023-02-21T07:21:12;8.10;99.90
354;DHT22;165;53.592;10.044;2023-02-21T07:23:38;8.20;99.90
354;DHT22;165;53.592;10.044;2023-02-21T07:26:03;8.20;99.90
354;DHT22;165;53.592;10.044;2023-02-21T07:28:29;8.30;99.90
354;DHT22;165;53.592;10.044;2023-02-21T07:30:54;8.30;99.90
354;DHT22;165;53.592;10.044;2023-02-21T07:33:20;8.40;99.90
354;DHT22;165;53.592;10.044;2023-02-21T07:35:45;8.40;99.90
354;DHT22;165;53.592;10.044;2023-02-21T07:38:20;8.50;99.90
354;DHT22;165;53.592;10.044;2023-02-21T07:40:46;8.60;99.90
354;DHT22;165;53.592;10.044;2023-02-21T07:43:11;8.80;99.90
354;DHT22;165;53.592;10.044;2023-02-21T07:45:37;8.90;99.90
354;DHT22;165;53.592;10.044;2023-02-21T07:48:02;9.00;99.90
354;DHT22;165;53.592;10.044;2023-02-21T07:50:28;9.20;99.90
354;DHT22;165;53.592;10.044;2023-02-21T07:52:53;9.20;99.90
354;DHT22;165;53.592;10.044;2023-02-21T07:55:19;9.30;99.90
354;DHT22;165;53.592;10.044;2023-02-21T07:57:44;9.30;99.90
354;DHT22;165;53.592;10.044;2023-02-21T08:00:10;9.50;99.90
354;DHT22;165;53.592;10.044;2023-02-21T08:02:37;9.60;99.90
354;DHT22;165;53.592;10.044;2023-02-21T08:05:04;9.70;99.90
354;DHT22;165;53.592;10.044;2023-02-21T08:07:30;9.80;99.90
354;DHT22;165;53.592;10.044;2023-02-21T08:09:56;9.90;99.90
354;DHT22;165;53.592;10.044;2023-02-21T08:12:21;9.90;99.90
354;DHT22;165;53.592;10.044;2023-02-21T08:14:47;9.90;99.90
354;DHT22;165;53.592;10.044;2023-02-21T08:17:12;10.00;99.90
354;DHT22;165;53.592;10.044;2023-02-21T08:19:38;10.30;99.90
354;DHT22;165;53.592;10.044;2023-02-21T08:22:03;10.40;99.90
354;DHT22;165;53.592;10.044;2023-02-21T08:24:29;10.30;99.90
354;DHT22;165;53.592;10.044;2023-02-21T08:26:54;10.40;99.90
354;DHT22;165;53.592;10.044;2023-02-21T08:29:20;10.50;99.90
354;DHT22;165;53.592;10.044;2023-02-21T08:31:45;10.60;99.90
354;DHT22;165;53.592;10.044;2023-02-21T08:34:14;10.50;99.90
354;DHT22;165;53.592;10.044;2023-02-21T08:36:41;10.40;99.90
354;DHT22;165;53.592;10.044;2023-02-21T08:39:08;10.30;99.90
354;DHT22;165;53.592;10.044;2023-02-21T08:41:39;10.40;99.90
354;DHT22;165;53.592;10.044;2023-02-21T08:44:06;10.60;99.90
354;DHT22;165;53.592;10.044;2023-02-21T08:46:32;10.70;99.90
354;DHT22;165;53.592;10.044;2023-02-21T08:48:58;10.90;99.90
354;DHT22;165;53.592;10.044;2023-02-21T08:51:31;11.00;99.90
354;DHT22;165;53.592;10.044;2023-02-21T08:53:57;11.30;99.90
354;DHT22;165;53.592;10.044;2023-02-21T08:56:24;11.60;99.90
354;DHT22;165;53.592;10.044;2023-02-21T08:58:50;12.00;99.90
354;DHT22;165;53.592;10.044;2023-02-21T09:01:16;12.20;99.90
354;DHT22;165;53.592;10.044;2023-02-21T09:03:41;12.00;99.90
354;DHT22;165;53.592;10.044;2023-02-21T09:06:07;11.90;99.90
354;DHT22;165;53.592;10.044;2023-02-21T09:08:35;11.90;99.90
354;DHT22;165;53.592;10.044;2023-02-21T09:11:01;11.70;99.90
354;DHT22;165;53.592;10.044;2023-02-21T09:13:28;11.60;99.90
354;DHT22;165;53.592;10.044;2023-02-21T09:15:57;11.50;99.90
354;DHT22;165;53.592;10.044;2023-02-21T09:18:23;11.70;99.90
354;DHT22;165;53.592;10.044;2023-02-21T09:20:48;12.20;99.90
354;DHT22;165;53.592;10.044;2023-02-21T09:23:14;12.60;99.90
354;DHT22;165;53.592;10.044;2023-02-21T09:25:45;12.70;99.90
354;DHT22;165;53.592;10.044;2023-02-21T09:28:11;12.60;99.90
354;DHT22;165;53.592;10.044;2023-02-21T09:30:38;12.50;99.90
354;DHT22;165;53.592;10.044;2023-02-21T09:33:04;12.40;99.90
354;DHT22;165;53.592;10.044;2023-02-21T09:35:29;12.30;99.90
354;DHT22;165;53.592;10.044;2023-02-21T09:37:58;12.50;99.90
354;DHT22;165;53.592;10.044;2023-02-21T09:43:02;12.80;99.90
354;DHT22;165;53.592;10.044;2023-02-21T09:45:31;12.80;99.90
354;DHT22;165;53.592;10.044;2023-02-21T09:48:00;12.70;99.90
354;DHT22;165;53.592;10.044;2023-02-21T09:50:28;12.70;99.90
354;DHT22;165;53.592;10.044;2023-02-21T09:52:59;12.80;99.90
354;DHT22;165;53.592;10.044;2023-02-21T09:55:32;12.80;99.90
354;DHT22;165;53.592;10.044;2023-02-21T09:58:02;12.40;99.90
354;DHT22;165;53.592;10.044;2023-02-21T10:00:37;12.30;99.90
354;DHT22;165;53.592;10.044;2023-02-21T10:03:36;12.40;99.90
354;DHT22;165;53.592;10.044;2023-02-21T10:06:17;12.40;99.90
354;DHT22;165;53.592;10.044;2023-02-21T10:09:07;12.50;99.90
354;DHT22;165;53.592;10.044;2023-02-21T10:12:07;12.70;99.90
354;DHT22;165;53.592;10.044;2023-02-21T10:14:58;12.90;99.90
354;DHT22;165;53.592;10.044;2023-02-21T10:17:50;13.00;99.90
354;DHT22;165;53.592;10.044;2023-02-21T10:20:35;13.10;99.90
354;DHT22;165;53.592;10.044;2023-02-21T10:23:03;13.10;99.90
354;DHT22;165;53.592;10.044;2023-02-21T10:25:31;13.00;99.90
354;DHT22;165;53.592;10.044;2023-02-21T10:27:58;13.00;99.90
354;DHT22;165;53.592;10.044;2023-02-21T10:30:37;13.00;99.90
354;DHT22;165;53.592;10.044;2023-02-21T10:33:03;13.00;99.90
354;DHT22;165;53.592;10.044;2023-02-21T10:35:29;13.00;99.90
354;DHT22;165;53.592;10.044;2023-02-21T10:37:56;13.10;99.90
354;DHT22;165;53.592;10.044;2023-02-21T10:43:27;12.80;99.90
354;DHT22;165;53.592;10.044;2023-02-21T10:48:40;12.70;99.90
354;DHT22;165;53.592;10.044;2023-02-21T10:51:27;13.00;99.90
354;DHT22;165;53.592;10.044;2023-02-21T10:53:53;13.30;99.90
354;DHT22;165;53.592;10.044;2023-02-21T10:56:24;13.20;99.90
354;DHT22;165;53.592;10.044;2023-02-21T10:58:56;13.60;99.90
354;DHT22;165;53.592;10.044;2023-02-21T11:03:58;13.80;99.90
354;DHT22;165;53.592;10.044;2023-02-21T11:08:56;13.80;99.90
354;DHT22;165;53.592;10.044;2023-02-21T11:12:02;13.70;99.90
354;DHT22;165;53.592;10.044;2023-02-21T11:14:28;13.40;99.90
354;DHT22;165;53.592;10.044;2023-02-21T11:22:43;13.50;99.90
354;DHT22;165;53.592;10.044;2023-02-21T11:25:38;13.30;99.90
354;DHT22;165;53.592;10.044;2023-02-21T11:28:16;13.10;99.90
354;DHT22;165;53.592;10.044;2023-02-21T11:30:49;13.10;99.90
354;DHT22;165;53.592;10.044;2023-02-21T11:33:20;13.20;99.90
354;DHT22;165;53.592;10.044;2023-02-21T11:35:49;13.30;99.90
354;DHT22;165;53.592;10.044;2023-02-21T11:38:35;13.60;99.90
354;DHT22;165;53.592;10.044;2023-02-21T11:41:35;13.60;99.90
354;DHT22;165;53.592;10.044;2023-02-21T11:43:55;13.70;99.90
354;DHT22;165;53.592;10.044;2023-02-21T11:46:33;13.20;99.90
354;DHT22;165;53.592;10.044;2023-02-21T11:51:56;13.40;99.90
354;DHT22;165;53.592;10.044;2023-02-21T11:54:27;13.30;99.90
354;DHT22;165;53.592;10.044;2023-02-21T11:57:03;13.40;99.90
354;DHT22;165;53.592;10.044;2023-02-21T11:59:45;13.30;99.90
354;DHT22;165;53.592;10.044;2023-02-21T12:02:44;13.10;99.90
354;DHT22;165;53.592;10.044;2023-02-21T12:08:14;12.40;99.90
354;DHT22;165;53.592;10.044;2023-02-21T12:10:48;12.40;99.90
354;DHT22;165;53.592;10.044;2023-02-21T12:16:25;12.50;99.90
354;DHT22;165;53.592;10.044;2023-02-21T12:19:11;12.50;99.90
354;DHT22;165;53.592;10.044;2023-02-21T12:32:20;12.40;99.90
354;DHT22;165;53.592;10.044;2023-02-21T12:35:22;12.50;99.90
354;DHT22;165;53.592;10.044;2023-02-21T12:38:09;12.50;99.90
354;DHT22;165;53.592;10.044;2023-02-21T12:40:46;12.40;99.90
354;DHT22;165;53.592;10.044;2023-02-21T12:49:17;12.20;99.90
354;DHT22;165;53.592;10.044;2023-02-21T12:51:55;12.40;99.90
354;DHT22;165;53.592;10.044;2023-02-21T12:54:45;12.50;99.90
354;DHT22;165;53.592;10.044;2023-02-21T12:57:23;12.40;99.90
354;DHT22;165;53.592;10.044;2023-02-21T13:05:02;11.60;99.90
354;DHT22;165;53.592;10.044;2023-02-21T13:07:36;11.50;99.90
354;DHT22;165;53.592;10.044;2023-02-21T13:10:25;11.40;99.90
354;DHT22;165;53.592;10.044;2023-02-21T13:13:14;11.30;99.90
354;DHT22;165;53.592;10.044;2023-02-21T13:15:42;11.30;99.90
354;DHT22;165;53.592;10.044;2023-02-21T13:21:40;11.10;99.90
354;DHT22;165;53.592;10.044;2023-02-21T13:27:27;11.10;99.90
354;DHT22;165;53.592;10.044;2023-02-21T13:31:03;11.20;99.90
354;DHT22;165;53.592;10.044;2023-02-21T13:32:59;11.30;99.90
354;DHT22;165;53.592;10.044;2023-02-21T13:35:34;11.40;99.90
354;DHT22;165;53.592;10.044;2023-02-21T13:38:05;11.60;99.90
354;DHT22;165;53.592;10.044;2023-02-21T13:40:37;11.70;99.90
354;DHT22;165;53.592;10.044;2023-02-21T13:43:11;11.70;99.90
354;DHT22;165;53.592;10.044;2023-02-21T13:45:37;11.80;99.90
354;DHT22;165;53.592;10.044;2023-02-21T13:55:39;12.00;99.90
354;DHT22;165;53.592;10.044;2023-02-21T14:03:02;11.60;99.90
354;DHT22;165;53.592;10.044;2023-02-21T14:08:30;11.70;99.90
354;DHT22;165;53.592;10.044;2023-02-21T14:11:13;11.70;99.90
354;DHT22;165;53.592;10.044;2023-02-21T14:16:34;11.80;99.90
354;DHT22;165;53.592;10.044;2023-02-21T14:19:24;11.50;99.90
354;DHT22;165;53.592;10.044;2023-02-21T14:22:00;11.50;99.90
354;DHT22;165;53.592;10.044;2023-02-21T14:24:30;11.40;99.90
354;DHT22;165;53.592;10.044;2023-02-21T14:27:03;11.30;99.90
354;DHT22;165;53.592;10.044;2023-02-21T14:40:03;11.30;99.90
354;DHT22;165;53.592;10.044;2023-02-21T14:46:06;11.20;99.90
354;DHT22;165;53.592;10.044;2023-02-21T14:51:57;10.90;99.90
354;DHT22;165;53.592;10.044;2023-02-21T14:55:26;10.80;99.90
354;DHT22;165;53.592;10.044;2023-02-21T15:00:21;10.50;99.90
354;DHT22;165;53.592;10.044;2023-02-21T15:08:19;10.50;99.90
